Burry Port, United Kingdom
Current Conditions -  °F | °C
As of 3:50 AM on Thursday 29 Jan 2015 (Local Time) from EGOP Reporting Station
Broken Clouds Broken Clouds  
Wind Chill: 30°   Ceiling: 4700
Heat Index: 41°   Visibility: 3mi
Dew Point: 36°   Wind: 26mph
Humidity: 81%   Direction: 270°W
Pressure: 29.38"   Gusts: NA
Location:  51.68°N, 4.25°W
Report Text: EGOP 290350Z AUTO 27023KT 5000 // FEW029/// BKN047/// 05/02 Q0995
Loading
Personal Weather Stations






























Interactive Weather Map New forecast layout! Learn more

10-Day Weather Forecast

Advertisements
Track Severe Weather on mobile